sensor_id;sensor_type;location;lat;lon;timestamp;temperature;humidity
1700;DHT22;847;48.058;7.810;2024-02-14T00:05:10;6.10;99.00
1700;DHT22;847;48.058;7.810;2024-02-14T00:11:12;6.20;99.00
1700;DHT22;847;48.058;7.810;2024-02-14T00:13:57;6.30;99.00
1700;DHT22;847;48.058;7.810;2024-02-14T00:30:26;6.40;99.00
1700;DHT22;847;48.058;7.810;2024-02-14T00:36:30;6.40;99.00
1700;DHT22;847;48.058;7.810;2024-02-14T00:46:52;6.40;99.00
1700;DHT22;847;48.058;7.810;2024-02-14T00:59:47;6.30;99.00
1700;DHT22;847;48.058;7.810;2024-02-14T01:13:33;6.30;99.00
1700;DHT22;847;48.058;7.810;2024-02-14T01:16:27;6.30;99.00
1700;DHT22;847;48.058;7.810;2024-02-14T01:36:10;6.10;99.00
1700;DHT22;847;48.058;7.810;2024-02-14T01:44:47;6.20;99.00
1700;DHT22;847;48.058;7.810;2024-02-14T01:57:46;6.30;99.00
1700;DHT22;847;48.058;7.810;2024-02-14T02:08:18;6.50;99.00
1700;DHT22;847;48.058;7.810;2024-02-14T02:11:06;6.70;99.00
1700;DHT22;847;48.058;7.810;2024-02-14T02:13:38;6.90;99.00
1700;DHT22;847;48.058;7.810;2024-02-14T02:16:09;7.00;99.00
1700;DHT22;847;48.058;7.810;2024-02-14T02:27:15;7.40;97.70
1700;DHT22;847;48.058;7.810;2024-02-14T02:35:15;7.70;97.00
1700;DHT22;847;48.058;7.810;2024-02-14T02:38:10;7.70;96.80
1700;DHT22;847;48.058;7.810;2024-02-14T02:56:51;8.20;95.00
1700;DHT22;847;48.058;7.810;2024-02-14T07:00:23;10.00;85.40
1700;DHT22;847;48.058;7.810;2024-02-14T09:13:18;10.30;91.80
1700;DHT22;847;48.058;7.810;2024-02-14T10:01:44;11.10;94.30
1700;DHT22;847;48.058;7.810;2024-02-14T10:04:11;11.20;94.20
1700;DHT22;847;48.058;7.810;2024-02-14T10:11:49;11.30;94.70
1700;DHT22;847;48.058;7.810;2024-02-14T11:21:58;12.30;93.50
1700;DHT22;847;48.058;7.810;2024-02-14T11:40:09;12.50;94.20
1700;DHT22;847;48.058;7.810;2024-02-14T12:02:14;12.90;94.30
1700;DHT22;847;48.058;7.810;2024-02-14T12:04:45;13.00;93.90
1700;DHT22;847;48.058;7.810;2024-02-14T12:07:12;12.90;94.00
1700;DHT22;847;48.058;7.810;2024-02-14T12:09:39;13.00;94.00
1700;DHT22;847;48.058;7.810;2024-02-14T12:17:36;12.90;94.30
1700;DHT22;847;48.058;7.810;2024-02-14T12:22:50;13.00;94.60
1700;DHT22;847;48.058;7.810;2024-02-14T12:25:16;13.00;94.70
1700;DHT22;847;48.058;7.810;2024-02-14T12:27:50;13.10;94.80
1700;DHT22;847;48.058;7.810;2024-02-14T12:30:19;13.10;94.60
1700;DHT22;847;48.058;7.810;2024-02-14T12:35:43;13.10;95.00
1700;DHT22;847;48.058;7.810;2024-02-14T12:38:11;13.10;94.80
1700;DHT22;847;48.058;7.810;2024-02-14T12:40:39;13.10;95.10
1700;DHT22;847;48.058;7.810;2024-02-14T12:43:07;13.10;95.80
1700;DHT22;847;48.058;7.810;2024-02-14T12:45:34;13.20;96.00
1700;DHT22;847;48.058;7.810;2024-02-14T12:48:12;13.20;96.00
1700;DHT22;847;48.058;7.810;2024-02-14T12:50:41;13.30;95.60
1700;DHT22;847;48.058;7.810;2024-02-14T12:53:13;13.30;95.80
1700;DHT22;847;48.058;7.810;2024-02-14T12:55:40;13.30;95.50
1700;DHT22;847;48.058;7.810;2024-02-14T12:58:07;13.30;95.90
1700;DHT22;847;48.058;7.810;2024-02-14T13:00:35;13.30;95.80
1700;DHT22;847;48.058;7.810;2024-02-14T13:03:03;13.30;95.80
1700;DHT22;847;48.058;7.810;2024-02-14T13:05:31;13.30;96.10
1700;DHT22;847;48.058;7.810;2024-02-14T13:07:59;13.30;96.10
1700;DHT22;847;48.058;7.810;2024-02-14T13:10:26;13.40;96.60
1700;DHT22;847;48.058;7.810;2024-02-14T13:12:53;13.40;96.40
1700;DHT22;847;48.058;7.810;2024-02-14T13:15:20;13.40;96.30
1700;DHT22;847;48.058;7.810;2024-02-14T13:17:47;13.50;96.50
1700;DHT22;847;48.058;7.810;2024-02-14T13:20:14;13.50;96.10
1700;DHT22;847;48.058;7.810;2024-02-14T13:22:43;13.50;96.10
1700;DHT22;847;48.058;7.810;2024-02-14T13:25:10;13.50;96.70
1700;DHT22;847;48.058;7.810;2024-02-14T13:27:36;13.50;96.70
1700;DHT22;847;48.058;7.810;2024-02-14T13:30:04;13.50;97.20
1700;DHT22;847;48.058;7.810;2024-02-14T13:32:32;13.60;97.00
1700;DHT22;847;48.058;7.810;2024-02-14T13:34:59;13.60;97.20
1700;DHT22;847;48.058;7.810;2024-02-14T13:37:26;13.60;97.00
1700;DHT22;847;48.058;7.810;2024-02-14T13:39:54;13.60;97.40
1700;DHT22;847;48.058;7.810;2024-02-14T13:42:21;13.70;97.60
1700;DHT22;847;48.058;7.810;2024-02-14T13:44:49;13.70;97.50
1700;DHT22;847;48.058;7.810;2024-02-14T13:47:18;13.70;97.40
1700;DHT22;847;48.058;7.810;2024-02-14T13:49:45;13.70;97.20
1700;DHT22;847;48.058;7.810;2024-02-14T13:52:12;13.70;97.60
1700;DHT22;847;48.058;7.810;2024-02-14T13:54:40;13.70;97.60
1700;DHT22;847;48.058;7.810;2024-02-14T13:57:09;13.70;98.00
1700;DHT22;847;48.058;7.810;2024-02-14T13:59:37;13.80;98.20
1700;DHT22;847;48.058;7.810;2024-02-14T14:02:04;13.80;97.80
1700;DHT22;847;48.058;7.810;2024-02-14T14:04:31;13.80;98.40
1700;DHT22;847;48.058;7.810;2024-02-14T14:07:00;13.80;98.50
1700;DHT22;847;48.058;7.810;2024-02-14T14:09:29;13.80;98.30
1700;DHT22;847;48.058;7.810;2024-02-14T14:11:58;13.80;98.30
1700;DHT22;847;48.058;7.810;2024-02-14T14:14:26;13.70;98.40
1700;DHT22;847;48.058;7.810;2024-02-14T14:16:54;13.70;98.30
1700;DHT22;847;48.058;7.810;2024-02-14T14:19:21;13.70;98.50
1700;DHT22;847;48.058;7.810;2024-02-14T14:21:47;13.70;98.20
1700;DHT22;847;48.058;7.810;2024-02-14T14:24:14;13.70;98.10
1700;DHT22;847;48.058;7.810;2024-02-14T14:26:41;13.70;98.30
1700;DHT22;847;48.058;7.810;2024-02-14T14:29:09;13.60;98.30
1700;DHT22;847;48.058;7.810;2024-02-14T14:31:40;13.60;98.40
1700;DHT22;847;48.058;7.810;2024-02-14T14:34:07;13.60;98.50
1700;DHT22;847;48.058;7.810;2024-02-14T14:36:34;13.60;98.50
1700;DHT22;847;48.058;7.810;2024-02-14T14:39:03;13.60;98.60
1700;DHT22;847;48.058;7.810;2024-02-14T14:41:29;13.60;98.50
1700;DHT22;847;48.058;7.810;2024-02-14T14:43:56;13.60;98.40
1700;DHT22;847;48.058;7.810;2024-02-14T14:46:24;13.60;98.10
1700;DHT22;847;48.058;7.810;2024-02-14T14:48:53;13.50;98.20
1700;DHT22;847;48.058;7.810;2024-02-14T14:51:20;13.50;98.10
1700;DHT22;847;48.058;7.810;2024-02-14T14:53:47;13.50;98.10
1700;DHT22;847;48.058;7.810;2024-02-14T14:56:14;13.50;98.20
1700;DHT22;847;48.058;7.810;2024-02-14T14:58:41;13.60;98.20
1700;DHT22;847;48.058;7.810;2024-02-14T15:01:08;13.60;98.10
1700;DHT22;847;48.058;7.810;2024-02-14T15:03:35;13.60;97.80
1700;DHT22;847;48.058;7.810;2024-02-14T15:06:03;13.60;97.70
1700;DHT22;847;48.058;7.810;2024-02-14T15:08:30;13.60;97.90
1700;DHT22;847;48.058;7.810;2024-02-14T15:10:58;13.60;97.90
1700;DHT22;847;48.058;7.810;2024-02-14T15:13:25;13.50;98.00
1700;DHT22;847;48.058;7.810;2024-02-14T15:15:52;13.60;97.90
1700;DHT22;847;48.058;7.810;2024-02-14T15:18:19;13.60;98.00
1700;DHT22;847;48.058;7.810;2024-02-14T15:20:46;13.50;98.00
1700;DHT22;847;48.058;7.810;2024-02-14T15:23:14;13.50;98.00
1700;DHT22;847;48.058;7.810;2024-02-14T15:25:41;13.50;98.10
1700;DHT22;847;48.058;7.810;2024-02-14T15:28:09;13.50;98.10
1700;DHT22;847;48.058;7.810;2024-02-14T15:30:40;13.50;98.30
1700;DHT22;847;48.058;7.810;2024-02-14T15:33:24;13.50;98.40
1700;DHT22;847;48.058;7.810;2024-02-14T15:35:52;13.50;98.50
1700;DHT22;847;48.058;7.810;2024-02-14T15:38:21;13.50;98.30
1700;DHT22;847;48.058;7.810;2024-02-14T15:40:49;13.50;98.10
1700;DHT22;847;48.058;7.810;2024-02-14T15:43:19;13.50;98.20
1700;DHT22;847;48.058;7.810;2024-02-14T15:45:46;13.50;98.30
1700;DHT22;847;48.058;7.810;2024-02-14T15:48:13;13.50;98.20
1700;DHT22;847;48.058;7.810;2024-02-14T15:50:41;13.50;98.00
1700;DHT22;847;48.058;7.810;2024-02-14T15:53:09;13.50;98.10
1700;DHT22;847;48.058;7.810;2024-02-14T15:55:37;13.50;98.00
1700;DHT22;847;48.058;7.810;2024-02-14T15:58:04;13.40;98.00
1700;DHT22;847;48.058;7.810;2024-02-14T16:00:31;13.40;98.10
1700;DHT22;847;48.058;7.810;2024-02-14T16:02:59;13.50;98.10
1700;DHT22;847;48.058;7.810;2024-02-14T16:05:25;13.40;98.30
1700;DHT22;847;48.058;7.810;2024-02-14T16:07:53;13.40;98.20
1700;DHT22;847;48.058;7.810;2024-02-14T16:10:20;13.40;98.30
1700;DHT22;847;48.058;7.810;2024-02-14T16:12:49;13.40;98.30
1700;DHT22;847;48.058;7.810;2024-02-14T16:15:16;13.40;98.30
1700;DHT22;847;48.058;7.810;2024-02-14T16:17:44;13.40;98.40
1700;DHT22;847;48.058;7.810;2024-02-14T16:20:12;13.40;98.40
1700;DHT22;847;48.058;7.810;2024-02-14T16:22:40;13.40;98.40
1700;DHT22;847;48.058;7.810;2024-02-14T16:25:07;13.40;98.50
1700;DHT22;847;48.058;7.810;2024-02-14T16:27:35;13.40;98.60
1700;DHT22;847;48.058;7.810;2024-02-14T16:30:04;13.40;98.60
1700;DHT22;847;48.058;7.810;2024-02-14T16:32:31;13.40;98.70
1700;DHT22;847;48.058;7.810;2024-02-14T16:34:58;13.40;98.80
1700;DHT22;847;48.058;7.810;2024-02-14T16:37:25;13.40;98.60
1700;DHT22;847;48.058;7.810;2024-02-14T16:39:52;13.40;98.60
1700;DHT22;847;48.058;7.810;2024-02-14T16:42:19;13.40;98.60
1700;DHT22;847;48.058;7.810;2024-02-14T16:44:46;13.40;98.60
1700;DHT22;847;48.058;7.810;2024-02-14T16:47:14;13.40;98.60
1700;DHT22;847;48.058;7.810;2024-02-14T16:49:41;13.40;98.60
1700;DHT22;847;48.058;7.810;2024-02-14T16:52:08;13.30;98.40
1700;DHT22;847;48.058;7.810;2024-02-14T16:54:35;13.30;98.50
1700;DHT22;847;48.058;7.810;2024-02-14T16:57:03;13.30;98.70
1700;DHT22;847;48.058;7.810;2024-02-14T16:59:34;13.30;98.60
1700;DHT22;847;48.058;7.810;2024-02-14T17:02:01;13.30;98.60
1700;DHT22;847;48.058;7.810;2024-02-14T17:04:29;13.30;98.60
1700;DHT22;847;48.058;7.810;2024-02-14T17:06:56;13.30;98.60
1700;DHT22;847;48.058;7.810;2024-02-14T17:09:23;13.30;98.60
1700;DHT22;847;48.058;7.810;2024-02-14T17:11:50;13.30;98.60
1700;DHT22;847;48.058;7.810;2024-02-14T17:14:17;13.30;98.60
1700;DHT22;847;48.058;7.810;2024-02-14T17:16:44;13.30;98.50
1700;DHT22;847;48.058;7.810;2024-02-14T17:19:12;13.30;98.60
1700;DHT22;847;48.058;7.810;2024-02-14T17:21:41;13.30;98.60
1700;DHT22;847;48.058;7.810;2024-02-14T17:24:08;13.30;98.60
1700;DHT22;847;48.058;7.810;2024-02-14T17:26:34;13.30;98.50
1700;DHT22;847;48.058;7.810;2024-02-14T17:29:02;13.30;98.50
1700;DHT22;847;48.058;7.810;2024-02-14T17:31:29;13.30;98.50
1700;DHT22;847;48.058;7.810;2024-02-14T17:33:58;13.30;98.40
1700;DHT22;847;48.058;7.810;2024-02-14T17:36:25;13.30;98.40
1700;DHT22;847;48.058;7.810;2024-02-14T17:38:53;13.20;98.30
1700;DHT22;847;48.058;7.810;2024-02-14T17:41:23;13.30;98.40
1700;DHT22;847;48.058;7.810;2024-02-14T17:43:50;13.20;98.30
1700;DHT22;847;48.058;7.810;2024-02-14T17:46:18;13.20;98.30
1700;DHT22;847;48.058;7.810;2024-02-14T17:48:45;13.20;98.50
1700;DHT22;847;48.058;7.810;2024-02-14T17:51:11;13.20;98.30
1700;DHT22;847;48.058;7.810;2024-02-14T17:53:39;13.20;98.20
1700;DHT22;847;48.058;7.810;2024-02-14T17:56:08;13.30;98.10
1700;DHT22;847;48.058;7.810;2024-02-14T17:58:35;13.20;98.10
1700;DHT22;847;48.058;7.810;2024-02-14T18:01:02;13.30;98.00
1700;DHT22;847;48.058;7.810;2024-02-14T18:03:29;13.30;98.00
1700;DHT22;847;48.058;7.810;2024-02-14T18:05:56;13.30;98.00
1700;DHT22;847;48.058;7.810;2024-02-14T18:08:23;13.20;98.00
1700;DHT22;847;48.058;7.810;2024-02-14T18:10:50;13.20;98.10
1700;DHT22;847;48.058;7.810;2024-02-14T18:13:18;13.20;98.20
1700;DHT22;847;48.058;7.810;2024-02-14T18:15:45;13.20;98.20
1700;DHT22;847;48.058;7.810;2024-02-14T18:18:14;13.20;98.30
1700;DHT22;847;48.058;7.810;2024-02-14T18:20:41;13.20;98.20
1700;DHT22;847;48.058;7.810;2024-02-14T18:23:08;13.20;98.10
1700;DHT22;847;48.058;7.810;2024-02-14T18:25:34;13.20;98.30
1700;DHT22;847;48.058;7.810;2024-02-14T18:28:01;13.20;98.10
1700;DHT22;847;48.058;7.810;2024-02-14T18:30:30;13.20;98.20
1700;DHT22;847;48.058;7.810;2024-02-14T18:32:58;13.10;98.30
1700;DHT22;847;48.058;7.810;2024-02-14T18:35:26;13.10;98.40
1700;DHT22;847;48.058;7.810;2024-02-14T18:37:53;13.10;98.20
1700;DHT22;847;48.058;7.810;2024-02-14T18:40:20;13.10;98.20
1700;DHT22;847;48.058;7.810;2024-02-14T18:42:47;13.10;98.10
1700;DHT22;847;48.058;7.810;2024-02-14T18:45:13;13.10;98.30
1700;DHT22;847;48.058;7.810;2024-02-14T18:47:41;13.10;98.60
1700;DHT22;847;48.058;7.810;2024-02-14T18:50:09;13.00;99.00
1700;DHT22;847;48.058;7.810;2024-02-14T18:52:36;12.90;99.00
1700;DHT22;847;48.058;7.810;2024-02-14T18:55:05;12.90;99.00
1700;DHT22;847;48.058;7.810;2024-02-14T18:57:31;12.90;99.00
1700;DHT22;847;48.058;7.810;2024-02-14T18:59:58;12.90;99.00
1700;DHT22;847;48.058;7.810;2024-02-14T19:02:25;12.90;99.00
1700;DHT22;847;48.058;7.810;2024-02-14T19:04:58;13.00;98.90
1700;DHT22;847;48.058;7.810;2024-02-14T19:07:25;13.00;98.80
1700;DHT22;847;48.058;7.810;2024-02-14T19:09:52;13.00;98.60
1700;DHT22;847;48.058;7.810;2024-02-14T19:12:19;13.00;98.50
1700;DHT22;847;48.058;7.810;2024-02-14T19:14:46;13.00;98.50
1700;DHT22;847;48.058;7.810;2024-02-14T19:17:14;13.10;98.50
1700;DHT22;847;48.058;7.810;2024-02-14T19:19:41;13.10;98.50
1700;DHT22;847;48.058;7.810;2024-02-14T19:22:09;13.10;98.40
1700;DHT22;847;48.058;7.810;2024-02-14T19:24:36;13.10;98.50
1700;DHT22;847;48.058;7.810;2024-02-14T19:27:03;13.10;98.50
1700;DHT22;847;48.058;7.810;2024-02-14T19:29:30;13.10;98.40
1700;DHT22;847;48.058;7.810;2024-02-14T19:31:57;13.10;98.40
1700;DHT22;847;48.058;7.810;2024-02-14T19:34:25;13.10;98.40
1700;DHT22;847;48.058;7.810;2024-02-14T19:36:52;13.10;98.40
1700;DHT22;847;48.058;7.810;2024-02-14T19:39:21;13.10;98.40
1700;DHT22;847;48.058;7.810;2024-02-14T19:41:48;13.10;98.40
1700;DHT22;847;48.058;7.810;2024-02-14T19:44:15;13.10;98.40
1700;DHT22;847;48.058;7.810;2024-02-14T19:46:42;13.10;98.50
1700;DHT22;847;48.058;7.810;2024-02-14T19:49:09;13.10;98.50
1700;DHT22;847;48.058;7.810;2024-02-14T19:51:39;13.10;98.40
1700;DHT22;847;48.058;7.810;2024-02-14T19:54:05;13.10;98.40
1700;DHT22;847;48.058;7.810;2024-02-14T19:56:34;13.10;98.50
1700;DHT22;847;48.058;7.810;2024-02-14T19:59:00;13.10;98.50
1700;DHT22;847;48.058;7.810;2024-02-14T20:01:28;13.10;98.50
1700;DHT22;847;48.058;7.810;2024-02-14T20:03:54;13.10;98.40
1700;DHT22;847;48.058;7.810;2024-02-14T20:06:24;13.10;98.50
1700;DHT22;847;48.058;7.810;2024-02-14T20:08:51;13.10;98.50
1700;DHT22;847;48.058;7.810;2024-02-14T20:11:19;13.00;98.40
1700;DHT22;847;48.058;7.810;2024-02-14T20:13:49;13.00;98.50
1700;DHT22;847;48.058;7.810;2024-02-14T20:16:15;13.00;98.60
1700;DHT22;847;48.058;7.810;2024-02-14T20:18:42;13.00;98.60
1700;DHT22;847;48.058;7.810;2024-02-14T20:21:09;13.00;98.70
1700;DHT22;847;48.058;7.810;2024-02-14T20:23:36;13.00;98.70
1700;DHT22;847;48.058;7.810;2024-02-14T20:26:03;12.90;99.00
1700;DHT22;847;48.058;7.810;2024-02-14T20:28:30;13.00;98.90
1700;DHT22;847;48.058;7.810;2024-02-14T20:30:58;12.90;99.00
1700;DHT22;847;48.058;7.810;2024-02-14T20:33:25;12.90;99.00
1700;DHT22;847;48.058;7.810;2024-02-14T20:35:52;12.90;99.00
1700;DHT22;847;48.058;7.810;2024-02-14T20:38:19;12.90;99.00
1700;DHT22;847;48.058;7.810;2024-02-14T20:40:46;12.90;99.00
1700;DHT22;847;48.058;7.810;2024-02-14T20:43:13;12.80;99.00
1700;DHT22;847;48.058;7.810;2024-02-14T20:45:40;12.90;99.00
1700;DHT22;847;48.058;7.810;2024-02-14T20:48:08;12.80;99.00
1700;DHT22;847;48.058;7.810;2024-02-14T20:50:35;12.80;99.00
1700;DHT22;847;48.058;7.810;2024-02-14T20:53:02;12.80;99.00
1700;DHT22;847;48.058;7.810;2024-02-14T20:55:29;12.80;99.00
1700;DHT22;847;48.058;7.810;2024-02-14T20:57:57;12.70;99.00
1700;DHT22;847;48.058;7.810;2024-02-14T21:00:24;12.70;99.00
1700;DHT22;847;48.058;7.810;2024-02-14T21:02:51;12.70;99.00
1700;DHT22;847;48.058;7.810;2024-02-14T21:05:19;12.70;99.00
1700;DHT22;847;48.058;7.810;2024-02-14T21:07:46;12.70;99.00
1700;DHT22;847;48.058;7.810;2024-02-14T21:10:13;12.70;99.00
1700;DHT22;847;48.058;7.810;2024-02-14T21:12:39;12.70;99.00
1700;DHT22;847;48.058;7.810;2024-02-14T21:15:07;12.70;99.00
1700;DHT22;847;48.058;7.810;2024-02-14T21:17:34;12.60;99.00
1700;DHT22;847;48.058;7.810;2024-02-14T21:20:01;12.60;99.00
1700;DHT22;847;48.058;7.810;2024-02-14T21:22:31;12.60;99.00
1700;DHT22;847;48.058;7.810;2024-02-14T21:24:59;12.50;99.00
1700;DHT22;847;48.058;7.810;2024-02-14T21:27:26;12.50;99.00
1700;DHT22;847;48.058;7.810;2024-02-14T21:29:52;12.50;99.00
1700;DHT22;847;48.058;7.810;2024-02-14T21:32:19;12.40;99.00
1700;DHT22;847;48.058;7.810;2024-02-14T21:34:46;12.40;99.00
1700;DHT22;847;48.058;7.810;2024-02-14T21:37:13;12.30;99.00
1700;DHT22;847;48.058;7.810;2024-02-14T21:39:41;12.20;99.00
1700;DHT22;847;48.058;7.810;2024-02-14T21:42:08;12.20;99.00
1700;DHT22;847;48.058;7.810;2024-02-14T21:44:35;12.10;99.00
1700;DHT22;847;48.058;7.810;2024-02-14T21:47:02;12.00;99.00
1700;DHT22;847;48.058;7.810;2024-02-14T21:49:30;11.80;99.00
1700;DHT22;847;48.058;7.810;2024-02-14T21:51:58;11.70;99.00
1700;DHT22;847;48.058;7.810;2024-02-14T21:54:30;11.60;99.00
1700;DHT22;847;48.058;7.810;2024-02-14T21:56:59;11.50;99.00
1700;DHT22;847;48.058;7.810;2024-02-14T21:59:27;11.50;99.00
1700;DHT22;847;48.058;7.810;2024-02-14T22:01:54;11.50;99.00
1700;DHT22;847;48.058;7.810;2024-02-14T22:04:21;11.50;99.00
1700;DHT22;847;48.058;7.810;2024-02-14T22:06:49;11.40;99.00
1700;DHT22;847;48.058;7.810;2024-02-14T22:09:18;11.30;99.00
1700;DHT22;847;48.058;7.810;2024-02-14T22:11:46;11.30;99.00
1700;DHT22;847;48.058;7.810;2024-02-14T22:17:05;11.10;99.00
1700;DHT22;847;48.058;7.810;2024-02-14T22:19:32;11.10;99.00
1700;DHT22;847;48.058;7.810;2024-02-14T22:22:03;11.10;99.00
1700;DHT22;847;48.058;7.810;2024-02-14T22:24:31;11.00;99.00
1700;DHT22;847;48.058;7.810;2024-02-14T22:29:45;10.90;99.00
1700;DHT22;847;48.058;7.810;2024-02-14T22:42:41;10.70;99.00
